createdAt,value
2017-11-07T00:00:26.994Z,18.67
2017-11-07T00:02:54.500Z,20.23
2017-11-07T00:05:22.075Z,21.07
2017-11-07T00:07:49.631Z,20.27
2017-11-07T00:10:17.850Z,19.63
2017-11-07T00:12:45.432Z,20.50
2017-11-07T00:15:13.656Z,18.57
2017-11-07T00:17:41.200Z,22.67
2017-11-07T00:20:08.781Z,20.43
2017-11-07T00:22:36.272Z,21.63
2017-11-07T00:25:04.508Z,20.93
2017-11-07T00:27:32.857Z,22.40
2017-11-07T00:30:01.296Z,23.80
2017-11-07T00:32:30.656Z,23.77
2017-11-07T00:34:58.900Z,24.70
2017-11-07T00:37:26.388Z,22.27
2017-11-07T00:39:54.734Z,25.07
2017-11-07T00:42:22.982Z,26.40
2017-11-07T00:44:50.460Z,22.67
2017-11-07T00:47:18.728Z,25.03
2017-11-07T00:49:46.269Z,25.43
2017-11-07T00:52:13.769Z,21.77
2017-11-07T00:54:42.111Z,23.83
2017-11-07T00:57:09.567Z,27.40
2017-11-07T00:59:38.072Z,26.53
2017-11-07T01:02:05.655Z,25.37
2017-11-07T01:04:33.961Z,24.67
2017-11-07T01:07:02.203Z,24.50
2017-11-07T01:09:30.578Z,26.90
2017-11-07T01:11:58.069Z,26.97
2017-11-07T01:14:25.529Z,27.07
2017-11-07T01:16:53.091Z,26.50
2017-11-07T01:19:21.394Z,26.87
2017-11-07T01:21:48.857Z,26.00
2017-11-07T01:24:16.428Z,25.40
2017-11-07T01:26:43.979Z,25.70
2017-11-07T01:29:12.211Z,27.43
2017-11-07T01:31:39.880Z,26.73
2017-11-07T01:34:07.345Z,28.07
2017-11-07T01:36:34.879Z,27.53
2017-11-07T01:39:03.258Z,28.70
2017-11-07T01:41:32.226Z,28.37
2017-11-07T01:43:59.685Z,30.90
2017-11-07T01:46:28.008Z,29.50
2017-11-07T01:48:55.476Z,31.67
2017-11-07T01:51:23.720Z,29.00
2017-11-07T01:53:51.250Z,29.80
2017-11-07T01:56:18.716Z,28.77
2017-11-07T01:58:46.293Z,30.40
2017-11-07T02:01:13.797Z,30.37
2017-11-07T02:03:41.278Z,30.77
2017-11-07T02:06:08.838Z,31.80
2017-11-07T02:08:36.321Z,27.90
2017-11-07T02:11:03.796Z,30.60
2017-11-07T02:13:31.425Z,31.77
2017-11-07T02:15:59.725Z,30.20
2017-11-07T02:18:27.196Z,32.60
2017-11-07T02:20:54.763Z,32.07
2017-11-07T02:23:22.234Z,29.10
2017-11-07T02:25:49.736Z,29.50
2017-11-07T02:28:18.061Z,26.80
2017-11-07T02:30:45.551Z,29.07
2017-11-07T02:33:13.020Z,30.20
2017-11-07T02:35:40.561Z,30.30
2017-11-07T02:38:08.032Z,32.93
2017-11-07T02:40:35.525Z,32.60
2017-11-07T02:43:03.831Z,30.40
2017-11-07T02:45:32.083Z,32.63
2017-11-07T02:50:21.972Z,29.27
2017-11-07T02:52:49.540Z,30.80
2017-11-07T02:55:17.119Z,34.10
2017-11-07T02:57:44.599Z,31.47
2017-11-07T03:00:12.065Z,32.50
2017-11-07T03:02:39.644Z,33.70
2017-11-07T03:05:07.129Z,30.60
2017-11-07T03:07:34.605Z,30.73
2017-11-07T03:10:02.161Z,28.90
2017-11-07T03:12:30.522Z,30.80
2017-11-07T03:14:58.811Z,29.03
2017-11-07T03:17:26.285Z,29.80
2017-11-07T03:19:54.585Z,33.10
2017-11-07T03:22:22.054Z,31.90
2017-11-07T03:24:50.385Z,31.70
2017-11-07T03:27:18.626Z,29.77
2017-11-07T03:29:46.099Z,28.23
2017-11-07T03:32:14.768Z,30.87
2017-11-07T03:34:43.017Z,30.00
2017-11-07T03:37:10.489Z,28.40
2017-11-07T03:39:38.029Z,27.80
2017-11-07T03:42:05.514Z,26.50
2017-11-07T03:44:33.768Z,27.70
2017-11-07T03:47:01.712Z,29.50
2017-11-07T03:49:30.716Z,27.90
2017-11-07T03:51:58.216Z,30.10
2017-11-07T03:54:26.545Z,22.70
2017-11-07T03:56:54.807Z,30.10
2017-11-07T03:59:22.365Z,27.63
2017-11-07T04:01:49.868Z,31.20
2017-11-07T04:04:17.345Z,30.10
2017-11-07T04:06:44.868Z,27.37
2017-11-07T04:09:12.341Z,27.60
2017-11-07T04:11:40.652Z,26.90
2017-11-07T04:14:08.239Z,27.03
2017-11-07T04:16:36.461Z,30.50
2017-11-07T04:19:04.030Z,23.07
2017-11-07T04:21:32.411Z,31.57
2017-11-07T04:24:00.714Z,30.93
2017-11-07T04:26:28.978Z,31.00
2017-11-07T04:28:56.890Z,29.43
2017-11-07T04:31:25.150Z,30.00
2017-11-07T04:33:52.676Z,30.03
2017-11-07T04:36:20.548Z,29.30
2017-11-07T04:38:48.022Z,29.50
2017-11-07T04:41:15.493Z,28.97
2017-11-07T04:43:43.167Z,31.20
2017-11-07T04:46:11.414Z,27.77
2017-11-07T04:48:38.886Z,28.50
2017-11-07T04:51:06.429Z,30.37
2017-11-07T04:53:34.716Z,28.90
2017-11-07T04:56:03.074Z,31.73
2017-11-07T04:58:30.563Z,31.73
2017-11-07T05:00:58.146Z,32.60
2017-11-07T05:03:25.743Z,36.30
2017-11-07T05:05:53.260Z,32.17
2017-11-07T05:08:20.796Z,34.53
2017-11-07T05:10:48.402Z,30.17
2017-11-07T05:13:15.914Z,32.43
2017-11-07T05:15:43.403Z,30.07
2017-11-07T05:18:10.977Z,32.30
2017-11-07T05:20:38.476Z,24.57
2017-11-07T05:23:05.961Z,35.77
2017-11-07T05:25:33.513Z,29.23
2017-11-07T05:28:00.983Z,32.17
2017-11-07T05:30:28.549Z,32.90
2017-11-07T05:32:56.815Z,31.57
2017-11-07T05:35:24.337Z,30.60
2017-11-07T05:37:51.858Z,32.03
2017-11-07T05:40:19.347Z,31.00
2017-11-07T05:42:46.915Z,30.10
2017-11-07T05:45:14.399Z,31.67
2017-11-07T05:47:41.864Z,28.00
2017-11-07T05:50:09.429Z,24.90
2017-11-07T05:52:37.698Z,32.97
2017-11-07T05:55:05.157Z,28.70
2017-11-07T05:57:32.903Z,30.60
2017-11-07T06:00:01.163Z,27.50
2017-11-07T06:02:28.641Z,25.20
2017-11-07T06:04:56.209Z,25.13
2017-11-07T06:07:23.685Z,27.67
2017-11-07T06:09:51.174Z,30.73
2017-11-07T06:12:18.743Z,19.80
2017-11-07T06:14:46.377Z,29.07
2017-11-07T06:17:13.865Z,26.90
2017-11-07T06:19:41.435Z,24.23
2017-11-07T06:22:08.947Z,25.97
2017-11-07T06:24:36.497Z,20.37
2017-11-07T06:27:04.246Z,24.07
2017-11-07T06:29:31.863Z,22.97
2017-11-07T06:31:59.570Z,20.43
2017-11-07T06:34:27.177Z,26.20
2017-11-07T06:36:54.680Z,28.90
2017-11-07T06:39:23.017Z,28.37
2017-11-07T06:41:50.509Z,26.33
2017-11-07T06:44:17.984Z,22.33
2017-11-07T06:46:45.567Z,24.40
2017-11-07T06:49:13.220Z,24.70
2017-11-07T06:51:41.490Z,22.47
2017-11-07T06:54:09.366Z,25.13
2017-11-07T06:56:36.843Z,24.57
2017-11-07T06:59:04.337Z,21.07
2017-11-07T07:01:31.945Z,19.97
2017-11-07T07:06:22.831Z,23.73
2017-11-07T07:08:51.068Z,20.10
2017-11-07T07:11:19.329Z,21.63
2017-11-07T07:13:47.691Z,23.13
2017-11-07T07:16:15.155Z,23.00
2017-11-07T07:18:42.626Z,23.10
2017-11-07T07:21:10.938Z,23.80
2017-11-07T07:23:39.179Z,24.63
2017-11-07T07:26:06.656Z,24.73
2017-11-07T07:28:34.259Z,25.07
2017-11-07T07:31:01.854Z,25.60
2017-11-07T07:33:30.447Z,27.97
2017-11-07T07:35:58.047Z,27.77
2017-11-07T07:38:25.613Z,28.10
2017-11-07T07:40:53.106Z,29.30
2017-11-07T07:43:20.768Z,27.43
2017-11-07T07:45:48.241Z,29.97
2017-11-07T07:48:16.494Z,30.60
2017-11-07T07:50:44.872Z,30.60
2017-11-07T07:53:12.351Z,27.83
2017-11-07T07:55:39.844Z,28.73
2017-11-07T07:58:07.434Z,31.90
2017-11-07T08:00:34.938Z,30.17
2017-11-07T08:03:02.424Z,30.97
2017-11-07T08:05:29.991Z,26.20
2017-11-07T08:07:57.811Z,24.40
2017-11-07T08:10:25.290Z,29.13
2017-11-07T08:12:52.892Z,30.17
2017-11-07T08:15:20.384Z,26.40
2017-11-07T08:17:47.867Z,26.80
2017-11-07T08:20:15.453Z,32.43
2017-11-07T08:22:42.917Z,31.67
2017-11-07T08:25:10.391Z,32.83
2017-11-07T08:27:39.960Z,29.57
2017-11-07T08:30:07.442Z,30.00
2017-11-07T08:32:34.948Z,30.53
2017-11-07T08:35:03.293Z,31.60
2017-11-07T08:37:30.761Z,29.57
2017-11-07T08:42:38.344Z,30.60
2017-11-07T08:45:05.839Z,28.53
2017-11-07T08:47:34.184Z,27.87
2017-11-07T08:50:01.767Z,32.60
2017-11-07T08:52:30.014Z,32.90
2017-11-07T08:54:57.554Z,30.50
2017-11-07T08:57:25.103Z,31.17
2017-11-07T08:59:53.370Z,32.77
2017-11-07T09:02:21.195Z,30.53
2017-11-07T09:04:48.689Z,26.47
2017-11-07T09:07:17.037Z,26.77
2017-11-07T09:09:44.616Z,24.13
2017-11-07T09:12:12.883Z,23.60
2017-11-07T09:14:41.360Z,24.80
2017-11-07T09:17:15.621Z,25.10
2017-11-07T09:19:43.880Z,21.97
2017-11-07T09:22:11.405Z,21.53
2017-11-07T09:24:39.681Z,22.67
2017-11-07T09:27:07.401Z,21.03
2017-11-07T09:29:42.466Z,24.10
2017-11-07T09:32:10.857Z,26.97
2017-11-07T09:34:39.112Z,22.50
2017-11-07T09:37:06.582Z,23.10
2017-11-07T09:39:34.932Z,23.40
2017-11-07T09:42:03.251Z,23.63
2017-11-07T09:44:30.767Z,22.93
2017-11-07T09:46:59.799Z,23.83
2017-11-07T09:49:28.504Z,21.10
2017-11-07T09:51:56.775Z,21.20
2017-11-07T09:54:24.256Z,22.90
2017-11-07T09:59:32.602Z,22.17
2017-11-07T10:02:00.592Z,22.60
2017-11-07T10:04:28.088Z,21.77
2017-11-07T10:09:35.363Z,24.90
2017-11-07T10:12:03.682Z,27.43
2017-11-07T10:17:09.735Z,27.00
2017-11-07T10:19:37.236Z,28.63
2017-11-07T10:22:04.784Z,26.57
2017-11-07T10:24:33.469Z,31.53
2017-11-07T10:27:01.953Z,32.83
2017-11-07T10:32:08.286Z,34.33
2017-11-07T10:34:35.889Z,30.33
2017-11-07T10:37:04.170Z,33.30
2017-11-07T10:39:31.812Z,34.00
2017-11-07T10:41:59.360Z,38.73
2017-11-07T10:44:26.858Z,33.40
2017-11-07T10:46:55.319Z,33.63
2017-11-07T10:49:22.901Z,34.47
2017-11-07T10:51:50.401Z,33.43
2017-11-07T10:54:17.971Z,33.33
2017-11-07T10:56:45.454Z,30.90
2017-11-07T10:59:13.051Z,34.23
2017-11-07T11:01:40.665Z,36.53
2017-11-07T11:04:08.362Z,31.80
2017-11-07T11:06:35.932Z,34.40
2017-11-07T11:09:03.623Z,29.07
2017-11-07T11:11:31.109Z,30.60
2017-11-07T11:13:58.581Z,31.60
2017-11-07T11:16:26.252Z,32.03
2017-11-07T11:18:53.776Z,33.40
2017-11-07T11:21:21.260Z,35.13
2017-11-07T11:23:49.570Z,34.20
2017-11-07T11:26:18.968Z,30.80
2017-11-07T11:28:47.232Z,34.73
2017-11-07T11:31:16.332Z,33.37
2017-11-07T11:33:45.084Z,33.00
2017-11-07T11:36:13.114Z,35.67
2017-11-07T11:38:40.803Z,32.50
2017-11-07T11:41:08.471Z,33.77
2017-11-07T11:43:35.950Z,32.47
2017-11-07T11:46:04.182Z,31.37
2017-11-07T11:48:31.772Z,32.37
2017-11-07T11:50:59.247Z,31.90
2017-11-07T11:53:26.723Z,31.90
2017-11-07T11:55:55.069Z,34.40
2017-11-07T11:58:22.712Z,32.90
2017-11-07T12:00:50.326Z,34.00
2017-11-07T12:03:18.696Z,33.13
2017-11-07T12:05:47.327Z,31.97
2017-11-07T12:08:14.798Z,33.70
2017-11-07T12:10:42.373Z,33.50
2017-11-07T12:13:09.960Z,30.20
2017-11-07T12:15:37.478Z,33.60
2017-11-07T12:18:06.236Z,31.57
2017-11-07T12:20:34.252Z,32.60
2017-11-07T12:23:02.754Z,35.60
2017-11-07T12:25:30.738Z,35.13
2017-11-07T12:27:58.214Z,35.60
2017-11-07T12:30:26.475Z,34.63
2017-11-07T12:32:54.041Z,34.33
2017-11-07T12:35:21.519Z,36.23
2017-11-07T12:37:49.046Z,35.57
2017-11-07T12:40:16.638Z,35.23
2017-11-07T12:42:44.216Z,35.00
2017-11-07T12:45:11.739Z,35.13
2017-11-07T12:47:39.771Z,33.90
2017-11-07T12:50:19.071Z,34.57
2017-11-07T12:52:46.644Z,36.63
2017-11-07T12:55:14.122Z,37.00
2017-11-07T12:57:41.598Z,35.40
2017-11-07T13:00:09.177Z,38.70
2017-11-07T13:02:36.756Z,36.50
2017-11-07T13:05:04.262Z,37.43
2017-11-07T13:07:32.305Z,34.83
2017-11-07T13:09:59.882Z,40.23
2017-11-07T13:12:27.380Z,36.93
2017-11-07T13:14:55.813Z,34.17
2017-11-07T13:17:23.427Z,37.63
2017-11-07T13:19:50.900Z,36.87
2017-11-07T13:22:18.858Z,35.67
2017-11-07T13:27:21.335Z,37.60
2017-11-07T13:29:48.838Z,35.33
2017-11-07T13:32:17.189Z,37.37
2017-11-07T13:34:44.716Z,37.73
2017-11-07T13:37:12.961Z,36.57
2017-11-07T13:39:40.554Z,38.10
2017-11-07T13:42:08.165Z,39.20
2017-11-07T13:44:35.825Z,37.63
2017-11-07T13:47:03.322Z,38.83
2017-11-07T13:49:30.812Z,43.20
2017-11-07T13:51:58.375Z,37.03
2017-11-07T13:54:25.850Z,35.97
2017-11-07T13:56:53.377Z,35.50
2017-11-07T13:59:22.008Z,39.47
2017-11-07T14:01:49.552Z,38.33
2017-11-07T14:04:18.465Z,36.87
2017-11-07T14:06:45.964Z,36.97
2017-11-07T14:09:14.284Z,38.37
2017-11-07T14:11:42.214Z,38.77
2017-11-07T14:14:09.697Z,37.80
2017-11-07T14:16:37.171Z,39.07
2017-11-07T14:19:05.558Z,37.67
2017-11-07T14:21:33.144Z,37.90
2017-11-07T14:24:00.607Z,38.80
2017-11-07T14:26:28.172Z,38.63
2017-11-07T14:28:55.636Z,39.13
2017-11-07T14:31:23.191Z,38.80
2017-11-07T14:33:57.584Z,39.87
2017-11-07T14:36:25.143Z,37.63
2017-11-07T14:38:52.679Z,39.80
2017-11-07T14:41:20.353Z,37.97
2017-11-07T14:43:47.825Z,38.90
2017-11-07T14:46:17.017Z,37.33
2017-11-07T14:48:51.747Z,39.87
2017-11-07T14:51:19.267Z,37.57
2017-11-07T14:53:46.806Z,39.50
2017-11-07T14:56:14.748Z,40.60
2017-11-07T14:58:42.374Z,39.70
2017-11-07T15:01:11.021Z,37.57
2017-11-07T15:03:38.646Z,36.10
2017-11-07T15:06:06.905Z,36.67
2017-11-07T15:08:34.659Z,39.03
2017-11-07T15:11:02.557Z,35.63
2017-11-07T15:13:30.845Z,35.27
2017-11-07T15:15:58.345Z,36.77
2017-11-07T15:18:26.050Z,36.50
2017-11-07T15:20:53.513Z,37.70
2017-11-07T15:23:21.123Z,35.87
2017-11-07T15:25:48.620Z,36.43
2017-11-07T15:28:16.185Z,38.60
2017-11-07T15:30:43.653Z,38.80
2017-11-07T15:33:12.201Z,37.17
2017-11-07T15:35:40.186Z,37.03
2017-11-07T15:38:07.676Z,38.73
2017-11-07T15:40:35.203Z,39.07
2017-11-07T15:43:04.649Z,37.50
2017-11-07T15:45:32.943Z,39.07
2017-11-07T15:48:00.547Z,38.00
2017-11-07T15:50:28.225Z,38.90
2017-11-07T15:52:56.492Z,39.60
2017-11-07T15:55:24.880Z,39.37
2017-11-07T15:57:52.488Z,37.53
2017-11-07T16:00:20.239Z,37.47
2017-11-07T16:02:48.559Z,37.57
2017-11-07T16:05:16.897Z,39.20
2017-11-07T16:07:44.490Z,36.87
2017-11-07T16:10:12.039Z,40.10
2017-11-07T16:12:40.504Z,38.30
2017-11-07T16:15:07.994Z,36.70
2017-11-07T16:17:35.492Z,38.10
2017-11-07T16:20:03.078Z,37.90
2017-11-07T16:22:30.740Z,38.03
2017-11-07T16:24:58.324Z,37.87
2017-11-07T16:27:25.899Z,36.03
2017-11-07T16:29:53.432Z,38.57
2017-11-07T16:32:20.918Z,38.57
2017-11-07T16:34:48.581Z,36.57
2017-11-07T16:37:16.092Z,38.07
2017-11-07T16:39:43.594Z,39.83
2017-11-07T16:42:11.146Z,38.17
2017-11-07T16:44:38.605Z,40.80
2017-11-07T16:47:06.109Z,39.20
2017-11-07T16:49:34.447Z,39.47
2017-11-07T16:52:01.939Z,38.57
2017-11-07T16:54:29.439Z,37.60
2017-11-07T16:56:57.231Z,39.63
2017-11-07T16:59:24.719Z,40.20
2017-11-07T17:01:52.196Z,40.87
2017-11-07T17:04:19.764Z,37.73
2017-11-07T17:06:47.423Z,39.80
2017-11-07T17:09:15.708Z,40.40
2017-11-07T17:11:43.236Z,41.60
2017-11-07T17:14:10.810Z,44.00
2017-11-07T17:16:38.280Z,42.30
2017-11-07T17:19:06.540Z,41.07
2017-11-07T17:21:34.129Z,39.47
2017-11-07T17:24:01.784Z,40.70
2017-11-07T17:26:29.260Z,39.77
2017-11-07T17:29:04.476Z,39.77
2017-11-07T17:31:32.768Z,40.80
2017-11-07T17:34:00.264Z,40.40
2017-11-07T17:36:28.246Z,41.30
2017-11-07T17:38:55.737Z,41.80
2017-11-07T17:41:23.248Z,44.70
2017-11-07T17:43:51.273Z,39.43
2017-11-07T17:46:18.735Z,39.17
2017-11-07T17:48:46.990Z,42.23
2017-11-07T17:51:14.926Z,39.90
2017-11-07T17:53:42.424Z,43.50
2017-11-07T17:56:09.989Z,43.67
2017-11-07T17:58:37.556Z,40.77
2017-11-07T18:01:05.073Z,42.37
2017-11-07T18:03:32.775Z,40.20
2017-11-07T18:06:00.453Z,39.37
2017-11-07T18:08:29.572Z,39.77
2017-11-07T18:10:57.191Z,42.70
2017-11-07T18:13:24.641Z,41.37
2017-11-07T18:15:52.135Z,39.53
2017-11-07T18:18:20.101Z,38.30
2017-11-07T18:20:47.757Z,38.63
2017-11-07T18:23:16.140Z,39.13
2017-11-07T18:25:43.686Z,40.90
2017-11-07T18:28:11.393Z,40.37
2017-11-07T18:30:39.713Z,39.93
2017-11-07T18:33:07.257Z,39.07
2017-11-07T18:35:34.751Z,38.03
2017-11-07T18:38:02.285Z,38.77
2017-11-07T18:40:29.768Z,38.80
2017-11-07T18:42:57.310Z,40.53
2017-11-07T18:45:24.816Z,40.73
2017-11-07T18:47:52.354Z,41.40
2017-11-07T18:50:20.380Z,38.43
2017-11-07T18:52:47.983Z,42.30
2017-11-07T18:55:15.643Z,40.77
2017-11-07T18:57:43.406Z,40.83
2017-11-07T19:00:10.948Z,40.67
2017-11-07T19:02:39.219Z,40.17
2017-11-07T19:05:07.218Z,41.57
2017-11-07T19:07:34.696Z,41.17
2017-11-07T19:10:02.174Z,40.70
2017-11-07T19:12:29.807Z,42.33
2017-11-07T19:14:58.045Z,39.00
2017-11-07T19:17:25.534Z,41.40
2017-11-07T19:19:53.152Z,39.93
2017-11-07T19:22:21.445Z,39.23
2017-11-07T19:24:48.940Z,35.53
2017-11-07T19:27:16.842Z,38.37
2017-11-07T19:29:44.313Z,38.10
2017-11-07T19:32:11.872Z,36.93
2017-11-07T19:34:39.453Z,38.83
2017-11-07T19:37:07.032Z,36.53
2017-11-07T19:39:34.551Z,37.83
2017-11-07T19:42:02.120Z,35.73
2017-11-07T19:44:29.739Z,37.40
2017-11-07T19:46:57.975Z,36.80
2017-11-07T19:49:25.859Z,37.53
2017-11-07T19:51:53.331Z,35.60
2017-11-07T19:54:21.887Z,36.00
2017-11-07T19:56:49.415Z,35.90
2017-11-07T19:59:16.954Z,36.50
2017-11-07T20:01:44.544Z,39.87
2017-11-07T20:04:12.021Z,38.50
2017-11-07T20:06:39.507Z,37.80
2017-11-07T20:09:07.037Z,36.93
2017-11-07T20:11:34.962Z,39.77
2017-11-07T20:14:02.492Z,41.23
2017-11-07T20:16:29.984Z,40.40
2017-11-07T20:18:58.418Z,43.67
2017-11-07T20:21:27.635Z,43.80
2017-11-07T20:23:55.930Z,46.40
2017-11-07T20:26:23.423Z,46.10
2017-11-07T20:28:50.933Z,44.43
2017-11-07T20:31:18.512Z,43.30
2017-11-07T20:33:46.052Z,44.40
2017-11-07T20:36:13.580Z,43.57
2017-11-07T20:38:41.171Z,42.87
2017-11-07T20:41:08.701Z,41.00
2017-11-07T20:43:36.985Z,41.67
2017-11-07T20:46:05.233Z,43.43
2017-11-07T20:48:33.636Z,42.53
2017-11-07T20:51:01.129Z,41.87
2017-11-07T20:53:28.627Z,41.77
2017-11-07T20:55:56.176Z,39.80
2017-11-07T20:58:24.170Z,41.30
2017-11-07T21:00:51.727Z,40.90
2017-11-07T21:03:19.194Z,39.20
2017-11-07T21:05:47.468Z,39.07
2017-11-07T21:08:14.936Z,38.37
2017-11-07T21:10:45.139Z,35.80
2017-11-07T21:13:12.635Z,34.50
2017-11-07T21:15:42.068Z,37.80
2017-11-07T21:18:09.736Z,36.53
2017-11-07T21:20:37.240Z,38.90
2017-11-07T21:23:04.744Z,37.80
2017-11-07T21:25:33.224Z,39.50
2017-11-07T21:28:00.713Z,38.13
2017-11-07T21:30:28.189Z,37.67
2017-11-07T21:32:59.086Z,35.03
2017-11-07T21:35:26.582Z,34.43
2017-11-07T21:37:54.890Z,31.20
2017-11-07T21:40:22.359Z,31.50
2017-11-07T21:42:49.826Z,27.50
2017-11-07T21:45:17.334Z,30.77
2017-11-07T21:47:45.770Z,27.83
2017-11-07T21:50:13.243Z,26.90
2017-11-07T21:52:41.627Z,26.60
2017-11-07T21:55:09.853Z,29.00
2017-11-07T21:57:37.327Z,26.97
2017-11-07T22:00:05.526Z,28.10
2017-11-07T22:02:35.749Z,27.77
2017-11-07T22:05:04.040Z,26.97
2017-11-07T22:07:32.336Z,26.43
2017-11-07T22:10:02.797Z,26.63
2017-11-07T22:12:30.294Z,25.97
2017-11-07T22:14:58.506Z,24.80
2017-11-07T22:17:29.076Z,24.30
2017-11-07T22:19:56.557Z,24.67
2017-11-07T22:22:24.876Z,25.20
2017-11-07T22:24:52.368Z,25.23
2017-11-07T22:27:19.943Z,25.50
2017-11-07T22:29:48.219Z,22.77
2017-11-07T22:32:16.523Z,24.87
2017-11-07T22:34:43.992Z,22.40
2017-11-07T22:37:12.380Z,24.20
2017-11-07T22:39:41.367Z,25.30
2017-11-07T22:42:09.619Z,24.13
2017-11-07T22:44:37.122Z,23.07
2017-11-07T22:47:04.611Z,22.23
2017-11-07T22:49:33.026Z,22.33
2017-11-07T22:52:00.591Z,21.70
2017-11-07T22:54:28.073Z,23.80
2017-11-07T22:56:55.583Z,21.83
2017-11-07T22:59:24.049Z,22.70
2017-11-07T23:01:51.598Z,22.30
2017-11-07T23:04:19.149Z,22.53
2017-11-07T23:06:47.428Z,23.70
2017-11-07T23:09:15.667Z,22.80
2017-11-07T23:11:43.313Z,23.70
2017-11-07T23:14:10.991Z,23.03
2017-11-07T23:16:38.540Z,21.97
2017-11-07T23:19:06.028Z,22.80
2017-11-07T23:21:35.738Z,24.87
2017-11-07T23:24:04.055Z,23.03
2017-11-07T23:26:31.758Z,22.90
2017-11-07T23:28:59.389Z,24.43
2017-11-07T23:31:26.860Z,25.13
2017-11-07T23:33:55.377Z,23.73
2017-11-07T23:36:23.712Z,24.80
2017-11-07T23:38:51.174Z,24.97
2017-11-07T23:41:18.648Z,23.27
2017-11-07T23:43:47.012Z,24.97
2017-11-07T23:46:14.486Z,26.10
2017-11-07T23:48:42.078Z,26.60
2017-11-07T23:51:10.428Z,22.90
2017-11-07T23:53:38.042Z,24.97
2017-11-07T23:56:05.521Z,23.73
2017-11-07T23:58:39.958Z,23.37
